LEIB/IBZ METAR and TAF weather

Enter ICAO airport designator
Station Type Date Time Source
LEIB METAR 2020/01/28 11:30 UTC NOAA

LEIB 281130Z 24019KT CAVOK 16/12 Q1022 NOSIG


Station Type Date Time Source
LEIB Decoded METAR 2020/01/28 11:30 UTC NOAA

Ibiza / Es Codola, Spain (LEIB) 38-52N 001-23E 12M
Jan 28, 2020 - 06:30 AM EST / 2020.01.28 1130 UTC
Wind: from the WSW (240 degrees) at 22 MPH (19 KT):0
Visibility: greater than 7 mile(s):0
Temperature: 60 F (16 C)
Dew Point: 53 F (12 C)
Relative Humidity: 77%
Pressure (altimeter): 30.18 in. Hg (1022 hPa)
ob: LEIB 281130Z 24019KT CAVOK 16/12 Q1022 NOSIG
cycle: 11

Station Type Date Time Source
LEIB TAF 2020/01/28 09:31 UTC NOAA

TAF LEIB 280800Z 2809/2909 26014KT CAVOK TX17/2812Z TN10/2906Z
TEMPO 2809/2815 26017G27KT

Example: see airport list